createdAt,value
2018-12-22T00:00:15.408Z,30.27
2018-12-22T00:02:42.961Z,31.67
2018-12-22T00:05:10.504Z,29.87
2018-12-22T00:07:38.177Z,28.03
2018-12-22T00:10:05.757Z,30.20
2018-12-22T00:12:33.367Z,27.60
2018-12-22T00:15:01.438Z,26.47
2018-12-22T00:17:28.981Z,30.17
2018-12-22T00:19:56.539Z,29.63
2018-12-22T00:22:24.217Z,28.40
2018-12-22T00:24:51.793Z,36.87
2018-12-22T00:27:19.360Z,35.90
2018-12-22T00:29:47.160Z,31.33
2018-12-22T00:32:14.699Z,30.50
2018-12-22T00:34:42.303Z,29.33
2018-12-22T00:37:10.937Z,29.80
2018-12-22T00:39:38.493Z,29.07
2018-12-22T00:42:06.066Z,27.73
2018-12-22T00:44:34.595Z,31.03
2018-12-22T00:47:02.150Z,31.73
2018-12-22T00:49:29.700Z,31.97
2018-12-22T00:51:57.380Z,30.43
2018-12-22T00:54:24.951Z,32.10
2018-12-22T00:56:52.512Z,32.90
2018-12-22T00:59:20.100Z,29.93
2018-12-22T01:01:47.673Z,31.10
2018-12-22T01:04:15.242Z,33.90
2018-12-22T01:06:42.942Z,30.10
2018-12-22T01:09:10.510Z,31.27
2018-12-22T01:11:38.041Z,29.87
2018-12-22T01:14:05.684Z,33.30
2018-12-22T01:16:33.270Z,30.73
2018-12-22T01:19:00.784Z,35.27
2018-12-22T01:21:28.398Z,32.10
2018-12-22T01:23:55.950Z,33.33
2018-12-22T01:26:23.529Z,28.87
2018-12-22T01:28:51.187Z,36.50
2018-12-22T01:31:18.738Z,31.87
2018-12-22T01:33:46.280Z,28.63
2018-12-22T01:36:13.889Z,27.90
2018-12-22T01:38:41.444Z,27.90
2018-12-22T01:41:08.977Z,25.77
2018-12-22T01:43:36.702Z,26.10
2018-12-22T01:46:04.293Z,25.77
2018-12-22T01:48:31.860Z,25.93
2018-12-22T01:50:59.553Z,22.90
2018-12-22T01:53:27.110Z,23.43
2018-12-22T01:55:54.656Z,23.90
2018-12-22T01:58:22.268Z,22.87
2018-12-22T02:00:49.816Z,22.87
2018-12-22T02:03:17.417Z,23.97
2018-12-22T02:05:45.153Z,25.23
2018-12-22T02:08:12.699Z,23.43
2018-12-22T02:10:40.245Z,24.63
2018-12-22T02:13:07.810Z,23.53
2018-12-22T02:15:35.386Z,24.23
2018-12-22T02:18:03.019Z,25.30
2018-12-22T02:20:30.713Z,24.80
2018-12-22T02:22:58.241Z,24.77
2018-12-22T02:25:25.796Z,24.73
2018-12-22T02:27:53.588Z,25.30
2018-12-22T02:30:21.168Z,24.57
2018-12-22T02:32:48.688Z,26.80
2018-12-22T02:35:16.637Z,26.33
2018-12-22T02:37:44.225Z,27.40
2018-12-22T02:40:11.792Z,23.90
2018-12-22T02:42:54.670Z,23.80
2018-12-22T02:45:22.236Z,29.43
2018-12-22T02:47:49.780Z,22.93
2018-12-22T02:50:17.503Z,26.27
2018-12-22T02:52:45.125Z,24.50
2018-12-22T02:55:12.688Z,25.93
2018-12-22T02:57:40.412Z,25.10
2018-12-22T03:00:08.047Z,23.67
2018-12-22T03:02:35.627Z,22.50
2018-12-22T03:05:03.406Z,23.47
2018-12-22T03:07:30.928Z,25.10
2018-12-22T03:09:58.485Z,22.33
2018-12-22T03:12:30.604Z,22.80
2018-12-22T03:14:58.289Z,21.73
2018-12-22T03:17:25.797Z,24.97
2018-12-22T03:19:53.814Z,20.40
2018-12-22T03:22:21.370Z,22.47
2018-12-22T03:24:48.918Z,22.53
2018-12-22T03:27:16.699Z,21.67
2018-12-22T03:29:44.277Z,21.03
2018-12-22T03:32:11.835Z,22.70
2018-12-22T03:34:39.774Z,23.03
2018-12-22T03:37:07.329Z,22.10
2018-12-22T03:39:34.879Z,23.30
2018-12-22T03:42:02.693Z,25.37
2018-12-22T03:44:30.236Z,22.80
2018-12-22T03:46:57.797Z,24.33
2018-12-22T03:49:25.496Z,24.87
2018-12-22T03:51:53.068Z,27.67
2018-12-22T03:54:20.642Z,21.43
2018-12-22T03:56:48.334Z,25.17
2018-12-22T03:59:24.543Z,24.37
2018-12-22T04:01:43.521Z,23.93
2018-12-22T04:04:11.204Z,25.37
2018-12-22T04:06:39.193Z,24.40
2018-12-22T04:09:09.010Z,27.40
2018-12-22T04:11:34.477Z,24.17
2018-12-22T04:14:02.086Z,25.90
2018-12-22T04:16:29.654Z,24.57
2018-12-22T04:18:57.242Z,25.87
2018-12-22T04:21:24.804Z,25.47
2018-12-22T04:23:52.387Z,24.33
2018-12-22T04:26:20.257Z,24.77
2018-12-22T04:28:47.812Z,23.87
2018-12-22T04:31:15.358Z,25.00
2018-12-22T04:33:43.232Z,26.50
2018-12-22T04:36:10.768Z,28.00
2018-12-22T04:38:38.334Z,28.20
2018-12-22T04:41:06.965Z,28.63
2018-12-22T04:43:34.560Z,29.13
2018-12-22T04:46:02.097Z,30.27
2018-12-22T04:48:29.807Z,27.17
2018-12-22T04:50:57.366Z,28.57
2018-12-22T04:53:24.914Z,30.10
2018-12-22T04:55:52.601Z,27.60
2018-12-22T04:58:20.150Z,29.23
2018-12-22T05:00:47.708Z,25.93
2018-12-22T05:03:15.305Z,31.20
2018-12-22T05:05:42.846Z,28.33
2018-12-22T05:08:10.434Z,29.67
2018-12-22T05:10:39.211Z,36.97
2018-12-22T05:13:06.737Z,29.93
2018-12-22T05:15:34.293Z,34.53
2018-12-22T05:18:01.948Z,364.30
2018-12-22T05:20:29.515Z,53.30
2018-12-22T05:22:57.090Z,36.17
2018-12-22T05:25:24.819Z,35.40
2018-12-22T05:27:52.359Z,31.13
2018-12-22T05:30:19.899Z,33.20
2018-12-22T05:32:49.433Z,28.87
2018-12-22T05:35:16.988Z,28.97
2018-12-22T05:37:44.553Z,28.20
2018-12-22T05:40:12.452Z,29.27
2018-12-22T05:42:40.019Z,33.03
2018-12-22T05:45:07.572Z,30.27
2018-12-22T05:47:35.449Z,28.90
2018-12-22T05:50:03.011Z,36.77
2018-12-22T05:52:30.577Z,34.03
2018-12-22T05:54:58.326Z,46.23
2018-12-22T05:57:25.863Z,34.93
2018-12-22T06:00:00.404Z,34.80
2018-12-22T06:02:21.071Z,35.77
2018-12-22T06:04:48.627Z,32.27
2018-12-22T06:07:16.227Z,30.77
2018-12-22T06:09:43.943Z,34.07
2018-12-22T06:12:11.521Z,30.93
2018-12-22T06:14:39.044Z,29.77
2018-12-22T06:17:06.742Z,42.60
2018-12-22T06:19:34.310Z,30.50
2018-12-22T06:22:01.849Z,28.80
2018-12-22T06:24:29.762Z,32.03
2018-12-22T06:26:57.323Z,30.83
2018-12-22T06:29:24.844Z,31.77
2018-12-22T06:31:52.956Z,30.90
2018-12-22T06:34:20.501Z,31.37
2018-12-22T06:36:48.080Z,30.80
2018-12-22T06:39:15.942Z,31.53
2018-12-22T06:41:43.544Z,29.67
2018-12-22T06:44:11.129Z,31.93
2018-12-22T06:46:38.876Z,30.40
2018-12-22T06:49:06.445Z,32.50
2018-12-22T06:51:34.014Z,31.00
2018-12-22T06:54:01.864Z,32.03
2018-12-22T06:56:29.441Z,32.23
2018-12-22T06:58:57.030Z,33.90
2018-12-22T07:01:24.834Z,29.97
2018-12-22T07:03:52.417Z,28.53
2018-12-22T07:06:20.013Z,27.43
2018-12-22T07:08:47.676Z,28.93
2018-12-22T07:11:15.215Z,45.00
2018-12-22T07:13:42.768Z,55.70
2018-12-22T07:16:10.410Z,65.63
2018-12-22T07:18:37.949Z,43.70
2018-12-22T07:21:05.517Z,55.27
2018-12-22T07:23:33.309Z,52.57
2018-12-22T07:26:00.868Z,49.83
2018-12-22T07:28:28.428Z,35.00
2018-12-22T07:30:56.239Z,50.47
2018-12-22T07:33:23.796Z,33.07
2018-12-22T07:35:51.381Z,98.17
2018-12-22T07:38:19.285Z,38.17
2018-12-22T07:40:46.836Z,34.07
2018-12-22T07:43:14.378Z,51.77
2018-12-22T07:45:42.295Z,85.67
2018-12-22T07:48:09.861Z,60.70
2018-12-22T07:50:37.409Z,51.90
2018-12-22T07:53:05.107Z,38.27
2018-12-22T07:55:32.703Z,30.57
2018-12-22T07:58:00.257Z,42.80
2018-12-22T08:00:34.827Z,34.67
2018-12-22T08:02:55.556Z,31.40
2018-12-22T08:05:23.132Z,35.30
2018-12-22T08:07:50.836Z,33.40
2018-12-22T08:10:18.403Z,57.17
2018-12-22T08:12:53.669Z,34.73
2018-12-22T08:15:21.237Z,40.47
2018-12-22T08:17:48.787Z,38.80
2018-12-22T08:20:16.481Z,39.83
2018-12-22T08:22:44.021Z,64.87
2018-12-22T08:25:11.590Z,59.73
2018-12-22T08:27:39.513Z,70.87
2018-12-22T08:30:07.127Z,57.43
2018-12-22T08:32:34.720Z,48.70
2018-12-22T08:35:02.617Z,42.33
2018-12-22T08:37:30.194Z,44.60
2018-12-22T08:39:57.736Z,42.40
2018-12-22T08:42:25.347Z,45.70
2018-12-22T08:44:52.891Z,53.13
2018-12-22T08:47:20.466Z,51.03
2018-12-22T08:49:48.193Z,54.07
2018-12-22T08:52:15.720Z,53.00
2018-12-22T08:54:43.270Z,53.80
2018-12-22T08:57:10.972Z,49.50
2018-12-22T08:59:38.548Z,51.37
2018-12-22T09:02:06.123Z,50.27
2018-12-22T09:04:34.025Z,66.57
2018-12-22T09:07:01.605Z,63.03
2018-12-22T09:09:29.155Z,55.73
2018-12-22T09:11:56.874Z,86.40
2018-12-22T09:14:24.441Z,55.13
2018-12-22T09:16:52.012Z,32.87
2018-12-22T09:19:20.018Z,33.57
2018-12-22T09:21:47.570Z,30.33
2018-12-22T09:24:15.131Z,30.03
2018-12-22T09:26:42.835Z,30.97
2018-12-22T09:29:10.403Z,32.17
2018-12-22T09:31:37.954Z,35.80
2018-12-22T09:34:13.044Z,35.13
2018-12-22T09:36:33.150Z,32.80
2018-12-22T09:39:00.709Z,32.33
2018-12-22T09:41:28.339Z,32.10
2018-12-22T09:43:55.902Z,32.37
2018-12-22T09:46:23.447Z,32.00
2018-12-22T09:48:52.224Z,33.80
2018-12-22T09:51:19.802Z,36.77
2018-12-22T09:53:47.353Z,36.10
2018-12-22T09:56:14.954Z,35.07
2018-12-22T09:58:42.509Z,43.93
2018-12-22T10:01:10.064Z,36.03
2018-12-22T10:03:37.754Z,33.77
2018-12-22T10:06:05.319Z,37.67
2018-12-22T10:08:32.901Z,35.20
2018-12-22T10:11:00.599Z,33.10
2018-12-22T10:13:28.486Z,31.20
2018-12-22T10:15:56.049Z,39.20
2018-12-22T10:18:23.686Z,37.03
2018-12-22T10:20:51.218Z,40.07
2018-12-22T10:23:18.784Z,44.20
2018-12-22T10:25:46.521Z,48.77
2018-12-22T10:28:14.076Z,47.77
2018-12-22T10:30:41.620Z,39.23
2018-12-22T10:33:09.523Z,41.47
2018-12-22T10:35:37.092Z,42.33
2018-12-22T10:38:04.630Z,40.83
2018-12-22T10:40:32.323Z,41.50
2018-12-22T10:42:59.874Z,42.37
2018-12-22T10:45:27.426Z,44.77
2018-12-22T10:47:55.005Z,42.13
2018-12-22T10:50:22.529Z,45.17
2018-12-22T10:52:54.923Z,45.47
2018-12-22T10:55:22.505Z,47.20
2018-12-22T10:57:50.072Z,46.53
2018-12-22T11:00:17.774Z,46.20
2018-12-22T11:02:45.353Z,46.93
2018-12-22T11:05:12.957Z,45.03
2018-12-22T11:07:40.663Z,46.53
2018-12-22T11:10:08.340Z,46.80
2018-12-22T11:12:35.897Z,47.47
2018-12-22T11:15:03.597Z,50.27
2018-12-22T11:17:31.181Z,90.37
2018-12-22T11:19:58.705Z,62.53
2018-12-22T11:22:39.312Z,59.63
2018-12-22T11:25:10.457Z,53.60
2018-12-22T11:27:38.016Z,43.43
2018-12-22T11:30:05.843Z,44.53
2018-12-22T11:32:33.385Z,47.43
2018-12-22T11:35:00.992Z,62.53
2018-12-22T11:37:28.696Z,51.13
2018-12-22T11:39:56.263Z,58.97
2018-12-22T11:42:36.311Z,47.93
2018-12-22T11:45:03.950Z,42.50
2018-12-22T11:47:31.557Z,49.33
2018-12-22T11:49:59.244Z,51.37
2018-12-22T11:52:26.797Z,57.57
2018-12-22T11:54:54.347Z,46.93
2018-12-22T11:57:22.249Z,48.70
2018-12-22T11:59:49.807Z,52.00
2018-12-22T12:02:17.392Z,51.73
2018-12-22T12:04:44.957Z,49.67
2018-12-22T12:07:12.521Z,47.43
2018-12-22T12:09:40.098Z,45.50
2018-12-22T12:12:08.043Z,46.80
2018-12-22T12:14:35.654Z,41.33
2018-12-22T12:17:03.248Z,37.97
2018-12-22T12:19:31.129Z,40.70
2018-12-22T12:21:58.697Z,56.40
2018-12-22T12:24:26.294Z,66.00
2018-12-22T12:26:54.055Z,53.43
2018-12-22T12:29:21.609Z,43.67
2018-12-22T12:31:52.200Z,47.13
2018-12-22T12:34:17.213Z,49.50
2018-12-22T12:36:44.772Z,53.10
2018-12-22T12:39:12.346Z,50.90
2018-12-22T12:41:39.985Z,48.47
2018-12-22T12:44:07.561Z,44.33
2018-12-22T12:46:36.037Z,47.67
2018-12-22T12:49:03.908Z,44.17
2018-12-22T12:51:31.473Z,46.20
2018-12-22T12:53:59.069Z,42.53
2018-12-22T12:56:26.903Z,48.03
2018-12-22T12:58:54.485Z,50.77
2018-12-22T13:01:22.025Z,51.37
2018-12-22T13:03:49.826Z,46.87
2018-12-22T13:06:17.396Z,43.50
2018-12-22T13:08:44.978Z,41.13
2018-12-22T13:11:12.731Z,41.50
2018-12-22T13:13:40.377Z,39.70
2018-12-22T13:16:07.949Z,40.63
2018-12-22T13:18:35.680Z,40.63
2018-12-22T13:21:03.292Z,39.60
2018-12-22T13:23:30.851Z,46.70
2018-12-22T13:25:58.587Z,41.50
2018-12-22T13:28:26.155Z,40.97
2018-12-22T13:30:53.734Z,42.77
2018-12-22T13:33:21.680Z,78.07
2018-12-22T13:35:48.971Z,40.40
2018-12-22T13:38:16.544Z,39.67
2018-12-22T13:40:44.501Z,39.20
2018-12-22T13:43:12.085Z,39.97
2018-12-22T13:45:39.655Z,40.87
2018-12-22T13:48:07.604Z,40.53
2018-12-22T13:50:35.042Z,40.97
2018-12-22T13:53:02.556Z,42.00
2018-12-22T13:55:30.233Z,41.43
2018-12-22T13:57:57.876Z,41.67
2018-12-22T14:00:25.486Z,40.33
2018-12-22T14:02:53.208Z,42.87
2018-12-22T14:05:22.337Z,40.90
2018-12-22T14:07:49.896Z,40.03
2018-12-22T14:10:17.677Z,40.57
2018-12-22T14:12:45.259Z,43.87
2018-12-22T14:15:14.796Z,42.33
2018-12-22T14:17:42.605Z,42.90
2018-12-22T14:20:10.206Z,42.70
2018-12-22T14:22:39.855Z,43.10
2018-12-22T14:25:09.168Z,45.10
2018-12-22T14:27:36.732Z,42.77
2018-12-22T14:30:04.318Z,43.43
2018-12-22T14:32:32.037Z,44.67
2018-12-22T14:34:59.659Z,43.50
2018-12-22T14:37:27.209Z,43.53
2018-12-22T14:39:55.125Z,42.37
2018-12-22T14:42:22.686Z,41.40
2018-12-22T14:44:50.237Z,43.87
2018-12-22T14:47:18.234Z,43.60
2018-12-22T14:49:45.733Z,44.60
2018-12-22T14:52:13.315Z,45.83
2018-12-22T14:54:40.946Z,45.33
2018-12-22T14:57:08.527Z,44.90
2018-12-22T14:59:36.066Z,43.13
2018-12-22T15:02:04.200Z,43.17
2018-12-22T15:04:33.830Z,44.93
2018-12-22T15:06:59.485Z,44.00
2018-12-22T15:09:27.186Z,44.77
2018-12-22T15:11:54.770Z,42.93
2018-12-22T15:14:22.340Z,44.57
2018-12-22T15:16:50.262Z,46.23
2018-12-22T15:19:17.863Z,46.53
2018-12-22T15:21:45.453Z,43.87
2018-12-22T15:24:13.073Z,44.00
2018-12-22T15:26:40.625Z,49.17
2018-12-22T15:29:08.185Z,50.07
2018-12-22T15:31:36.045Z,58.40
2018-12-22T15:34:03.638Z,54.33
2018-12-22T15:36:31.249Z,56.47
2018-12-22T15:38:58.887Z,59.20
2018-12-22T15:41:26.447Z,62.63
2018-12-22T15:43:54.031Z,70.33
2018-12-22T15:46:21.696Z,82.20
2018-12-22T15:48:49.269Z,82.83
2018-12-22T15:51:16.806Z,62.40
2018-12-22T15:53:44.424Z,61.63
2018-12-22T15:56:12.004Z,54.77
2018-12-22T15:58:39.578Z,119.83
2018-12-22T16:01:07.501Z,151.93
2018-12-22T16:03:35.117Z,143.23
2018-12-22T16:06:02.703Z,178.67
2018-12-22T16:08:30.444Z,172.50
2018-12-22T16:10:58.001Z,111.80
2018-12-22T16:13:25.537Z,163.90
2018-12-22T16:15:53.274Z,217.67
2018-12-22T16:18:20.894Z,275.33
2018-12-22T16:20:48.490Z,126.77
2018-12-22T16:23:16.232Z,136.00
2018-12-22T16:25:43.807Z,164.77
2018-12-22T16:28:11.420Z,169.67
2018-12-22T16:30:40.252Z,171.47
2018-12-22T16:33:07.828Z,155.83
2018-12-22T16:35:35.397Z,166.20
2018-12-22T16:38:03.004Z,163.23
2018-12-22T16:40:30.591Z,154.70
2018-12-22T16:42:58.155Z,182.90
2018-12-22T16:45:25.823Z,187.27
2018-12-22T16:47:53.404Z,178.93
2018-12-22T16:50:20.938Z,199.90
2018-12-22T16:52:48.832Z,160.17
2018-12-22T16:55:16.451Z,142.90
2018-12-22T16:57:56.837Z,153.27
2018-12-22T17:00:26.212Z,183.00
2018-12-22T17:02:53.820Z,148.17
2018-12-22T17:05:21.775Z,183.40
2018-12-22T17:07:49.382Z,207.47
2018-12-22T17:10:16.975Z,172.33
2018-12-22T17:12:58.093Z,221.13
2018-12-22T17:15:25.695Z,189.93
2018-12-22T17:17:53.236Z,347.17
2018-12-22T17:20:21.097Z,200.10
2018-12-22T17:22:54.385Z,135.53
2018-12-22T17:25:22.334Z,115.10
2018-12-22T17:27:49.890Z,132.20
2018-12-22T17:30:17.460Z,150.50
2018-12-22T17:32:45.249Z,152.27
2018-12-22T17:35:12.875Z,162.23
2018-12-22T17:37:40.405Z,167.07
2018-12-22T17:40:09.721Z,155.00
2018-12-22T17:42:42.103Z,165.97
2018-12-22T17:45:09.773Z,193.10
2018-12-22T17:47:37.324Z,251.47
2018-12-22T17:50:05.028Z,260.53
2018-12-22T17:52:33.999Z,150.20
2018-12-22T17:55:01.594Z,142.67
2018-12-22T17:57:29.229Z,158.40
2018-12-22T17:59:56.946Z,187.67
2018-12-22T18:02:24.584Z,204.13
2018-12-22T18:04:52.129Z,248.90
2018-12-22T18:07:19.952Z,218.20
2018-12-22T18:09:47.546Z,154.57
2018-12-22T18:12:15.104Z,135.37
2018-12-22T18:14:43.050Z,150.97
2018-12-22T18:17:10.607Z,170.27
2018-12-22T18:19:38.197Z,162.20
2018-12-22T18:22:06.026Z,163.90
2018-12-22T18:24:33.612Z,147.20
2018-12-22T18:27:01.166Z,128.93
2018-12-22T18:29:28.806Z,118.57
2018-12-22T18:31:56.366Z,105.60
2018-12-22T18:34:23.909Z,102.13
2018-12-22T18:36:51.792Z,85.07
2018-12-22T18:39:19.356Z,84.77
2018-12-22T18:41:46.921Z,84.77
2018-12-22T18:44:14.646Z,91.13
2018-12-22T18:46:42.189Z,77.63
2018-12-22T18:49:09.732Z,96.00
2018-12-22T18:51:37.641Z,96.30
2018-12-22T18:54:05.202Z,92.97
2018-12-22T18:56:32.808Z,134.40
2018-12-22T18:59:00.499Z,182.43
2018-12-22T19:01:28.081Z,190.67
2018-12-22T19:03:55.653Z,161.57
2018-12-22T19:06:23.423Z,182.43
2018-12-22T19:08:50.979Z,145.43
2018-12-22T19:11:18.707Z,135.67
2018-12-22T19:13:46.400Z,139.33
2018-12-22T19:16:13.965Z,120.30
2018-12-22T19:18:41.530Z,148.13
2018-12-22T19:21:09.251Z,126.33
2018-12-22T19:23:36.818Z,134.90
2018-12-22T19:26:04.392Z,144.83
2018-12-22T19:28:32.193Z,170.70
2018-12-22T19:30:59.771Z,139.27
2018-12-22T19:33:27.346Z,126.00
2018-12-22T19:35:55.005Z,173.13
2018-12-22T19:38:22.563Z,122.50
2018-12-22T19:40:50.149Z,147.33
2018-12-22T19:43:17.874Z,177.63
2018-12-22T19:45:45.467Z,119.00
2018-12-22T19:48:13.104Z,133.90
2018-12-22T19:50:40.882Z,139.00
2018-12-22T19:53:08.456Z,108.63
2018-12-22T19:55:36.029Z,88.70
2018-12-22T19:58:04.151Z,80.57
2018-12-22T20:00:31.713Z,126.23
2018-12-22T20:02:59.292Z,112.80
2018-12-22T20:05:26.901Z,95.00
2018-12-22T20:07:54.456Z,61.00
2018-12-22T20:10:22.027Z,53.83
2018-12-22T20:12:50.041Z,62.53
2018-12-22T20:15:17.618Z,87.50
2018-12-22T20:17:45.193Z,85.67
2018-12-22T20:20:13.018Z,85.87
2018-12-22T20:22:40.581Z,93.77
2018-12-22T20:25:08.192Z,91.90
2018-12-22T20:27:35.922Z,89.70
2018-12-22T20:30:03.548Z,83.80
2018-12-22T20:32:31.117Z,83.80
2018-12-22T20:34:58.921Z,89.80
2018-12-22T20:37:26.490Z,91.23
2018-12-22T20:39:54.067Z,145.20
2018-12-22T20:42:21.769Z,99.47
2018-12-22T20:44:49.321Z,81.63
2018-12-22T20:47:16.969Z,74.90
2018-12-22T20:49:44.560Z,68.77
2018-12-22T20:52:12.115Z,50.03
2018-12-22T20:54:39.653Z,69.47
2018-12-22T20:57:07.370Z,93.70
2018-12-22T20:59:34.947Z,85.53
2018-12-22T21:02:02.563Z,59.07
2018-12-22T21:04:30.186Z,63.70
2018-12-22T21:06:57.761Z,63.40
2018-12-22T21:09:25.322Z,55.77
2018-12-22T21:11:53.113Z,93.97
2018-12-22T21:14:20.700Z,58.13
2018-12-22T21:16:48.298Z,75.93
2018-12-22T21:19:16.034Z,64.70
2018-12-22T21:21:43.635Z,58.50
2018-12-22T21:24:11.213Z,61.97
2018-12-22T21:26:38.968Z,97.57
2018-12-22T21:29:06.555Z,95.23
2018-12-22T21:31:34.083Z,93.97
2018-12-22T21:34:01.829Z,97.10
2018-12-22T21:36:29.390Z,76.33
2018-12-22T21:38:56.918Z,86.60
2018-12-22T21:41:24.599Z,83.37
2018-12-22T21:43:52.190Z,63.60
2018-12-22T21:46:19.782Z,61.73
2018-12-22T21:48:47.689Z,50.33
2018-12-22T21:51:15.249Z,50.43
2018-12-22T21:53:42.809Z,49.43
2018-12-22T21:56:10.398Z,50.77
2018-12-22T21:58:37.959Z,54.47
2018-12-22T22:01:05.527Z,64.67
2018-12-22T22:03:33.228Z,61.03
2018-12-22T22:06:00.797Z,56.53
2018-12-22T22:08:28.322Z,49.53
2018-12-22T22:10:55.969Z,44.70
2018-12-22T22:13:23.853Z,60.57
2018-12-22T22:15:51.433Z,59.83
2018-12-22T22:18:19.306Z,55.70
2018-12-22T22:20:46.856Z,43.80
2018-12-22T22:23:18.864Z,48.60
2018-12-22T22:25:42.199Z,46.47
2018-12-22T22:28:09.774Z,56.53
2018-12-22T22:30:37.360Z,54.87
2018-12-22T22:33:04.986Z,53.00
2018-12-22T22:35:32.536Z,54.87
2018-12-22T22:38:00.114Z,46.83
2018-12-22T22:40:27.741Z,49.10
2018-12-22T22:42:55.310Z,46.93
2018-12-22T22:45:22.925Z,48.20
2018-12-22T22:47:50.546Z,41.87
2018-12-22T22:50:18.093Z,45.87
2018-12-22T22:52:45.639Z,44.40
2018-12-22T22:55:13.562Z,221.40
2018-12-22T22:57:41.188Z,57.13
2018-12-22T23:00:08.823Z,47.90
2018-12-22T23:02:53.621Z,46.37
2018-12-22T23:05:21.417Z,45.27
2018-12-22T23:07:48.948Z,87.37
2018-12-22T23:10:16.500Z,51.50
2018-12-22T23:13:03.385Z,49.50
2018-12-22T23:15:30.945Z,43.03
2018-12-22T23:17:58.508Z,43.57
2018-12-22T23:20:26.166Z,40.57
2018-12-22T23:22:53.748Z,45.27
2018-12-22T23:25:21.320Z,37.93
2018-12-22T23:27:49.129Z,42.83
2018-12-22T23:30:16.678Z,39.63
2018-12-22T23:32:44.232Z,46.77
2018-12-22T23:35:12.139Z,48.30
2018-12-22T23:37:39.669Z,48.57
2018-12-22T23:40:07.265Z,54.27
2018-12-22T23:42:35.901Z,48.73
2018-12-22T23:45:03.613Z,48.27
2018-12-22T23:47:31.092Z,43.87
2018-12-22T23:49:58.776Z,41.33
2018-12-22T23:52:26.342Z,45.00
2018-12-22T23:54:53.877Z,43.30
2018-12-22T23:57:21.546Z,43.03
2018-12-22T23:59:49.097Z,45.30
